Time;durP1;ratioP1;P1;durP2;ratioP2;P2;SDS_P1;SDS_P2;PMS_P1;PMS_P2;Temp;Humidity;BMP_temperature;BMP_pressure;BME280_temperature;BME280_humidity;BME280_pressure;Samples;Min_cycle;Max_cycle;Signal;HPM_P1;HPM_P2
2022/07/28 00:00:48;;;;;;;4.03;2.00;;;10.20;99.90;;;;;;4998795;28;20264;-79
2022/07/28 00:03:16;;;;;;;6.47;2.00;;;10.10;99.90;;;;;;4979976;28;20244;-78
2022/07/28 00:05:42;;;;;;;3.60;1.70;;;10.10;99.90;;;;;;4986568;28;20328;-78
2022/07/28 00:08:10;;;;;;;4.70;1.90;;;10.10;99.90;;;;;;4988724;28;20251;-79
2022/07/28 00:10:37;;;;;;;2.53;1.63;;;10.00;99.90;;;;;;4986176;28;20611;-79
2022/07/28 00:13:04;;;;;;;2.97;1.70;;;10.00;99.90;;;;;;4987315;28;20237;-79
2022/07/28 00:15:31;;;;;;;3.77;1.60;;;9.90;99.90;;;;;;4999270;28;20229;-79
2022/07/28 00:17:59;;;;;;;3.20;1.80;;;9.90;99.90;;;;;;4980036;28;20714;-79
2022/07/28 00:20:26;;;;;;;2.80;1.80;;;9.90;99.90;;;;;;4984291;28;20245;-80
2022/07/28 00:22:53;;;;;;;3.13;1.60;;;9.80;99.90;;;;;;4991144;28;20229;-80
2022/07/28 00:25:20;;;;;;;3.57;1.87;;;9.80;99.90;;;;;;4990233;28;20220;-80
2022/07/28 00:27:47;;;;;;;2.93;1.50;;;9.80;99.90;;;;;;4985787;28;20233;-79
2022/07/28 00:30:14;;;;;;;3.07;1.50;;;9.70;99.90;;;;;;4985492;28;20229;-79
2022/07/28 00:32:40;;;;;;;3.73;1.80;;;9.70;99.90;;;;;;4986323;28;20220;-80
2022/07/28 00:35:09;;;;;;;5.43;1.60;;;9.70;99.90;;;;;;4995573;28;20323;-79
2022/07/28 00:37:36;;;;;;;5.50;2.20;;;9.60;99.90;;;;;;4990405;28;21989;-80
2022/07/28 00:40:03;;;;;;;5.23;2.20;;;9.60;99.90;;;;;;4991329;28;20350;-80
2022/07/28 00:42:30;;;;;;;2.80;1.70;;;9.60;99.90;;;;;;4985041;28;20231;-79
2022/07/28 00:44:57;;;;;;;3.43;2.00;;;9.50;99.90;;;;;;5004726;28;20742;-81
2022/07/28 00:47:25;;;;;;;3.00;1.60;;;9.50;99.90;;;;;;4989545;28;20237;-80
2022/07/28 00:49:52;;;;;;;5.13;2.20;;;9.50;99.90;;;;;;4993382;28;20237;-80
2022/07/28 00:52:21;;;;;;;2.77;1.57;;;9.40;99.90;;;;;;4992356;28;20230;-81
2022/07/28 00:54:48;;;;;;;4.90;2.17;;;9.40;99.90;;;;;;4990993;28;20259;-81
2022/07/28 00:57:15;;;;;;;4.33;1.70;;;9.40;99.90;;;;;;4989134;28;20232;-81
2022/07/28 00:59:41;;;;;;;3.13;1.73;;;9.30;99.90;;;;;;4992872;28;20290;-80
2022/07/28 01:02:08;;;;;;;3.40;1.90;;;9.30;99.90;;;;;;4991748;28;20228;-81
2022/07/28 01:04:35;;;;;;;6.10;2.30;;;9.30;99.90;;;;;;5002730;28;20228;-80
2022/07/28 01:07:15;;;;;;;3.93;1.70;;;9.30;99.90;;;;;;4992132;28;20235;-80
2022/07/28 01:09:56;;;;;;;4.40;2.30;;;9.20;99.90;;;;;;5001620;28;20267;-80
2022/07/28 01:12:42;;;;;;;5.37;1.70;;;9.20;99.90;;;;;;4986168;28;20547;-80
2022/07/28 01:15:19;;;;;;;5.40;2.00;;;9.10;99.90;;;;;;4982374;28;20232;-80
2022/07/28 01:17:54;;;;;;;4.43;1.97;;;9.10;99.90;;;;;;4987211;28;20219;-80
2022/07/28 01:20:25;;;;;;;3.57;1.97;;;9.10;99.90;;;;;;4985378;28;20220;-80
2022/07/28 01:23:05;;;;;;;5.03;2.00;;;9.00;99.90;;;;;;4989841;28;20239;-80
2022/07/28 01:25:55;;;;;;;3.27;2.20;;;9.00;99.90;;;;;;4986497;28;20217;-79
2022/07/28 01:28:32;;;;;;;3.07;2.27;;;9.00;99.90;;;;;;4983395;28;20615;-81
2022/07/28 01:31:05;;;;;;;6.40;2.13;;;9.00;99.90;;;;;;4988013;28;20226;-81
2022/07/28 01:33:36;;;;;;;3.53;1.90;;;8.90;99.90;;;;;;4985441;28;20235;-80
2022/07/28 01:36:09;;;;;;;7.73;2.10;;;8.90;99.90;;;;;;5002270;28;20224;-81
2022/07/28 01:38:38;;;;;;;2.80;2.00;;;8.90;99.90;;;;;;4986831;28;20228;-81
2022/07/28 01:41:07;;;;;;;5.23;2.30;;;8.80;99.90;;;;;;4984422;28;20991;-80
2022/07/28 01:43:37;;;;;;;2.70;2.20;;;8.80;99.90;;;;;;4982661;28;20226;-79
2022/07/28 01:46:07;;;;;;;3.67;1.93;;;8.80;99.90;;;;;;4983266;28;20238;-79
2022/07/28 01:48:37;;;;;;;3.80;2.07;;;8.80;99.90;;;;;;4983215;28;20231;-79
2022/07/28 01:51:06;;;;;;;3.37;2.00;;;8.80;99.90;;;;;;4980065;28;20228;-80
2022/07/28 01:53:34;;;;;;;2.63;1.87;;;8.80;99.90;;;;;;4977625;28;20315;-80
2022/07/28 01:56:05;;;;;;;2.83;1.90;;;8.70;99.90;;;;;;4982423;28;20229;-80
2022/07/28 01:58:33;;;;;;;2.90;1.90;;;8.70;99.90;;;;;;4983946;28;20229;-79
2022/07/28 02:01:03;;;;;;;4.47;2.17;;;8.70;99.90;;;;;;4981811;28;20230;-80
2022/07/28 02:03:32;;;;;;;2.50;1.60;;;8.60;99.90;;;;;;4987485;28;20646;-80
2022/07/28 02:06:02;;;;;;;3.70;1.70;;;8.60;99.90;;;;;;4989248;28;20232;-80
2022/07/28 02:08:31;;;;;;;3.73;2.13;;;8.60;99.90;;;;;;4983585;28;20296;-79
2022/07/28 02:13:46;;;;;;;3.37;1.93;;;8.60;99.90;;;;;;4977797;28;20224;-78
2022/07/28 02:16:14;;;;;;;4.43;2.13;;;8.60;99.90;;;;;;4984468;28;20220;-80
2022/07/28 02:18:44;;;;;;;3.33;2.00;;;8.60;99.90;;;;;;4983359;28;20260;-79
2022/07/28 02:21:12;;;;;;;6.93;2.23;;;8.60;99.90;;;;;;4996720;28;21028;-78
2022/07/28 02:23:43;;;;;;;6.13;2.23;;;8.70;99.90;;;;;;4981737;28;20312;-80
2022/07/28 02:26:11;;;;;;;5.33;2.43;;;8.70;99.90;;;;;;4981064;28;20250;-79
2022/07/28 02:28:42;;;;;;;4.77;2.03;;;8.70;99.90;;;;;;4983987;28;20239;-80
2022/07/28 02:31:14;;;;;;;3.47;1.93;;;8.80;99.90;;;;;;4986687;28;20663;-80
2022/07/28 02:33:46;;;;;;;5.50;2.33;;;8.90;99.90;;;;;;4987211;28;20233;-80
2022/07/28 02:36:19;;;;;;;4.70;2.27;;;9.00;99.90;;;;;;4987520;28;20234;-80
2022/07/28 02:38:49;;;;;;;4.47;2.07;;;9.10;99.90;;;;;;4990578;28;20252;-79
2022/07/28 02:41:21;;;;;;;7.03;2.37;;;9.10;99.90;;;;;;4987929;28;20266;-79
2022/07/28 02:43:52;;;;;;;3.80;1.87;;;9.20;99.90;;;;;;5002730;28;20290;-79
2022/07/28 02:46:22;;;;;;;3.73;2.40;;;9.30;99.90;;;;;;4988066;28;20808;-79
2022/07/28 02:48:54;;;;;;;6.33;2.37;;;9.30;99.90;;;;;;4992092;28;20240;-81
2022/07/28 02:51:24;;;;;;;4.00;2.00;;;9.40;99.90;;;;;;4992945;28;20989;-79
2022/07/28 02:53:52;;;;;;;4.17;2.10;;;9.40;99.90;;;;;;4990227;28;20247;-81
2022/07/28 02:56:19;;;;;;;4.60;2.10;;;9.40;99.90;;;;;;4993805;28;20243;-81
2022/07/28 02:58:47;;;;;;;2.93;2.00;;;9.40;99.90;;;;;;5009068;28;20775;-80
2022/07/28 03:01:17;;;;;;;3.13;2.00;;;9.50;99.90;;;;;;4993444;28;20222;-80
2022/07/28 03:03:44;;;;;;;3.50;1.73;;;9.50;99.90;;;;;;4993859;28;20237;-80
2022/07/28 03:06:13;;;;;;;4.20;1.97;;;9.50;99.90;;;;;;4995104;28;21020;-80
2022/07/28 03:08:41;;;;;;;3.67;2.10;;;9.50;99.90;;;;;;4992410;28;20234;-80
2022/07/28 03:11:09;;;;;;;4.17;2.10;;;9.50;99.90;;;;;;4991598;28;20236;-80
2022/07/28 03:13:36;;;;;;;4.70;2.20;;;9.50;99.90;;;;;;4990177;28;20241;-80
2022/07/28 03:16:03;;;;;;;4.13;1.90;;;9.50;99.90;;;;;;4991639;28;20249;-80
2022/07/28 03:18:33;;;;;;;3.70;1.80;;;9.60;99.90;;;;;;4986959;28;20222;-79
2022/07/28 03:21:00;;;;;;;4.20;1.80;;;9.50;99.90;;;;;;4986977;28;20236;-79
2022/07/28 03:23:33;;;;;;;3.03;2.00;;;9.50;99.90;;;;;;4986430;28;20991;-79
2022/07/28 03:26:05;;;;;;;4.87;2.10;;;9.50;99.90;;;;;;4985914;28;20225;-79
2022/07/28 03:28:33;;;;;;;2.57;2.23;;;9.50;99.90;;;;;;4987633;28;20490;-80
2022/07/28 03:31:03;;;;;;;3.17;1.87;;;9.50;99.90;;;;;;4985450;28;20304;-79
2022/07/28 03:33:30;;;;;;;3.03;2.03;;;9.50;99.90;;;;;;4984396;28;20813;-83
2022/07/28 03:36:01;;;;;;;4.93;2.00;;;9.50;99.90;;;;;;4991109;28;20244;-82
2022/07/28 03:38:36;;;;;;;6.23;2.20;;;9.60;99.90;;;;;;4989596;28;20321;-83
2022/07/28 03:41:06;;;;;;;2.80;1.80;;;9.60;99.90;;;;;;5004758;28;20224;-83
2022/07/28 03:43:33;;;;;;;2.87;1.90;;;9.60;99.90;;;;;;4989088;28;20251;-83
2022/07/28 03:46:06;;;;;;;3.20;2.13;;;9.70;99.90;;;;;;4991120;28;20272;-81
2022/07/28 03:48:33;;;;;;;4.83;2.03;;;9.70;99.90;;;;;;4981325;28;20236;-79
2022/07/28 03:51:00;;;;;;;5.17;2.10;;;9.70;99.90;;;;;;4982820;28;20229;-81
2022/07/28 03:53:29;;;;;;;4.83;1.97;;;9.70;99.90;;;;;;4980887;28;20227;-80
2022/07/28 03:55:57;;;;;;;3.13;2.20;;;9.80;99.90;;;;;;4985837;28;20256;-77
2022/07/28 03:58:26;;;;;;;5.17;2.17;;;9.80;99.90;;;;;;4988792;28;20328;-79
2022/07/28 04:00:53;;;;;;;4.10;2.13;;;9.80;99.90;;;;;;4999221;28;20232;-79
2022/07/28 04:03:20;;;;;;;2.97;1.90;;;9.90;99.90;;;;;;4981152;28;20312;-78
2022/07/28 04:05:47;;;;;;;2.67;1.93;;;10.00;99.90;;;;;;4988881;28;20250;-80
2022/07/28 04:08:14;;;;;;;4.57;1.97;;;10.00;99.90;;;;;;4991704;28;20222;-81
2022/07/28 04:10:42;;;;;;;3.43;2.20;;;10.10;99.90;;;;;;4992493;28;20650;-80
2022/07/28 04:13:09;;;;;;;4.60;2.00;;;10.10;99.90;;;;;;4990580;28;20229;-81
2022/07/28 04:15:36;;;;;;;3.90;2.03;;;10.20;99.90;;;;;;4995336;28;20417;-80
2022/07/28 04:18:02;;;;;;;6.83;2.60;;;10.30;99.90;;;;;;4994597;28;20237;-81
2022/07/28 04:20:29;;;;;;;5.27;2.10;;;10.40;99.90;;;;;;4985590;28;20224;-78
2022/07/28 04:22:57;;;;;;;5.53;2.20;;;10.50;99.90;;;;;;5000399;28;20234;-81
2022/07/28 04:25:25;;;;;;;5.00;2.10;;;10.50;99.90;;;;;;5004228;28;20215;-81
2022/07/28 04:27:54;;;;;;;5.60;2.40;;;10.60;99.90;;;;;;5006742;28;20226;-81
2022/07/28 04:30:23;;;;;;;5.53;2.10;;;10.70;99.90;;;;;;4989088;28;20234;-80
2022/07/28 04:32:53;;;;;;;3.90;2.60;;;10.70;99.90;;;;;;5000748;28;20290;-79
2022/07/28 04:35:22;;;;;;;4.50;2.17;;;10.80;99.90;;;;;;4983537;28;20238;-78
2022/07/28 04:37:50;;;;;;;4.47;2.50;;;10.90;99.90;;;;;;4980495;28;20216;-77
2022/07/28 04:40:17;;;;;;;5.63;2.17;;;11.00;99.90;;;;;;4984553;28;20222;-79
2022/07/28 04:42:44;;;;;;;5.50;2.40;;;11.00;99.90;;;;;;4985757;28;20841;-78
2022/07/28 04:45:12;;;;;;;4.37;2.30;;;11.10;99.90;;;;;;4981284;28;20224;-79
2022/07/28 04:47:39;;;;;;;3.13;2.20;;;11.20;99.90;;;;;;4987386;28;20238;-79
2022/07/28 04:50:08;;;;;;;5.47;2.40;;;11.30;99.90;;;;;;4988556;28;20240;-79
2022/07/28 04:52:35;;;;;;;7.40;2.63;;;11.30;99.90;;;;;;4982779;28;20224;-79
2022/07/28 04:55:02;;;;;;;6.17;2.30;;;11.40;99.90;;;;;;5008822;23;20305;-83
2022/07/28 04:57:29;;;;;;;5.03;2.20;;;11.50;99.90;;;;;;5000462;28;20217;-82
2022/07/28 04:59:56;;;;;;;4.80;2.47;;;11.60;99.90;;;;;;5005550;28;20233;-82
2022/07/28 05:02:24;;;;;;;5.53;2.70;;;11.70;99.90;;;;;;5000804;28;20217;-82
2022/07/28 05:04:51;;;;;;;5.27;2.00;;;11.80;99.90;;;;;;5000286;28;20227;-82
2022/07/28 05:07:18;;;;;;;5.63;2.83;;;11.80;99.90;;;;;;4999538;28;20336;-83
2022/07/28 05:09:45;;;;;;;7.90;3.03;;;11.90;99.90;;;;;;4996867;28;20603;-80
2022/07/28 05:12:12;;;;;;;5.40;2.57;;;12.00;99.90;;;;;;5004599;28;20581;-82
2022/07/28 05:14:39;;;;;;;4.80;2.70;;;12.10;99.90;;;;;;4993988;28;20241;-82
2022/07/28 05:17:05;;;;;;;4.47;2.50;;;12.20;99.90;;;;;;5002241;28;20220;-82
2022/07/28 05:19:33;;;;;;;7.17;2.70;;;12.30;99.90;;;;;;5019475;28;20306;-83
2022/07/28 05:25:48;;;;;;;5.47;2.77;;;12.50;99.90;;;;;;4996137;28;20680;-83
2022/07/28 05:28:14;;;;;;;3.63;2.23;;;12.70;99.90;;;;;;5005268;28;20227;-83
2022/07/28 05:30:41;;;;;;;4.27;2.27;;;12.80;99.90;;;;;;5008477;28;20233;-82
2022/07/28 05:33:08;;;;;;;4.87;2.43;;;12.90;99.90;;;;;;5001640;28;20741;-83
2022/07/28 05:35:36;;;;;;;6.47;2.27;;;13.00;99.90;;;;;;5000524;28;20244;-81
2022/07/28 05:38:03;;;;;;;5.13;2.60;;;13.20;99.90;;;;;;4994939;28;20509;-80
2022/07/28 05:40:30;;;;;;;7.43;2.60;;;13.30;99.90;;;;;;5005951;28;20291;-82
2022/07/28 05:42:56;;;;;;;4.80;2.20;;;13.40;99.90;;;;;;5001531;28;20255;-82
2022/07/28 05:45:23;;;;;;;3.53;2.13;;;13.60;99.90;;;;;;5005839;28;20800;-83
2022/07/28 05:47:52;;;;;;;6.70;2.40;;;13.70;99.90;;;;;;5002432;28;20224;-82
2022/07/28 05:50:25;;;;;;;6.13;2.40;;;13.90;99.90;;;;;;4987455;28;20254;-83
2022/07/28 05:52:53;;;;;;;4.53;1.90;;;14.00;99.90;;;;;;5000566;28;20225;-83
2022/07/28 05:55:21;;;;;;;4.70;2.27;;;14.10;99.90;;;;;;4986070;28;20253;-83
2022/07/28 05:57:47;;;;;;;3.50;2.13;;;14.20;99.90;;;;;;5003239;28;20245;-84
2022/07/28 06:00:16;;;;;;;4.93;1.90;;;14.30;99.90;;;;;;4986146;28;20228;-82
2022/07/28 06:02:44;;;;;;;5.23;2.60;;;14.30;99.90;;;;;;5002774;28;20676;-82
2022/07/28 06:05:12;;;;;;;6.43;2.53;;;14.50;99.90;;;;;;4988665;28;20236;-83
2022/07/28 06:07:38;;;;;;;3.23;1.80;;;14.60;99.90;;;;;;4987060;28;20448;-83
2022/07/28 06:10:08;;;;;;;4.77;2.27;;;14.70;99.90;;;;;;4988333;28;20647;-82
2022/07/28 06:12:40;;;;;;;6.80;2.33;;;14.80;99.90;;;;;;4986818;28;20696;-83
2022/07/28 06:15:08;;;;;;;3.93;1.97;;;15.00;99.90;;;;;;4979794;28;20252;-82
2022/07/28 06:17:34;;;;;;;5.53;1.97;;;15.10;99.90;;;;;;4988911;28;20224;-82
2022/07/28 06:20:01;;;;;;;5.27;1.60;;;15.30;99.90;;;;;;4989689;28;20234;-82
2022/07/28 06:22:28;;;;;;;6.17;1.73;;;15.40;99.90;;;;;;4993030;28;20239;-82
2022/07/28 06:24:55;;;;;;;2.67;1.40;;;15.40;99.90;;;;;;4988315;28;20256;-83
2022/07/28 06:27:23;;;;;;;6.03;1.97;;;15.50;99.90;;;;;;4987754;28;20225;-83
2022/07/28 06:29:50;;;;;;;4.27;1.40;;;15.60;99.90;;;;;;4990956;28;20224;-82
2022/07/28 06:32:17;;;;;;;4.23;1.43;;;15.60;99.90;;;;;;4990292;28;20229;-83
2022/07/28 06:34:43;;;;;;;8.33;4.87;;;15.70;99.90;;;;;;4990811;28;20254;-83
2022/07/28 06:37:10;;;;;;;4.77;1.43;;;15.80;99.90;;;;;;4986387;28;20248;-83
2022/07/28 06:39:37;;;;;;;2.80;1.47;;;15.90;99.90;;;;;;4988225;28;20229;-83
2022/07/28 06:42:04;;;;;;;3.60;1.03;;;15.90;99.90;;;;;;4990346;28;20229;-82
2022/07/28 06:44:32;;;;;;;3.10;1.13;;;16.00;99.90;;;;;;4990524;28;20768;-82
2022/07/28 06:46:58;;;;;;;5.33;2.47;;;16.20;99.20;;;;;;4986848;28;20244;-83
2022/07/28 06:49:25;;;;;;;3.20;1.13;;;16.30;99.00;;;;;;4997507;28;20711;-82
2022/07/28 06:51:52;;;;;;;2.40;0.90;;;16.50;98.70;;;;;;4993066;28;20454;-83
2022/07/28 06:54:18;;;;;;;3.07;1.10;;;16.60;98.30;;;;;;4994944;28;20234;-84
2022/07/28 06:56:45;;;;;;;2.97;0.80;;;16.80;98.00;;;;;;4991146;28;20602;-82
2022/07/28 06:59:14;;;;;;;3.93;1.10;;;17.00;97.90;;;;;;4992053;28;20244;-82
2022/07/28 07:01:41;;;;;;;2.00;1.00;;;17.20;97.50;;;;;;4998355;28;20218;-82
2022/07/28 07:04:08;;;;;;;2.67;0.87;;;17.40;96.90;;;;;;4990742;28;20441;-82
2022/07/28 07:06:35;;;;;;;3.77;1.00;;;17.60;96.80;;;;;;4988798;28;20290;-82
2022/07/28 07:09:01;;;;;;;3.23;1.00;;;17.80;96.50;;;;;;4991974;28;20226;-83
2022/07/28 07:11:28;;;;;;;3.33;1.13;;;18.00;95.90;;;;;;4987496;28;20312;-83
2022/07/28 07:13:55;;;;;;;3.60;0.87;;;18.20;95.80;;;;;;4999703;28;20233;-83
2022/07/28 07:16:22;;;;;;;3.40;1.17;;;18.30;95.70;;;;;;4987348;28;20414;-83
2022/07/28 07:18:51;;;;;;;3.60;0.93;;;18.50;95.10;;;;;;4996062;28;20695;-83
2022/07/28 07:21:18;;;;;;;3.77;1.00;;;18.70;94.30;;;;;;5005233;28;20230;-83
2022/07/28 07:23:45;;;;;;;4.03;1.20;;;18.80;94.30;;;;;;4990092;28;20253;-82
2022/07/28 07:26:11;;;;;;;6.10;0.80;;;18.90;94.20;;;;;;4989821;28;20230;-83
2022/07/28 07:28:40;;;;;;;4.47;1.20;;;19.00;93.50;;;;;;4989778;28;20222;-83
2022/07/28 07:31:07;;;;;;;4.60;1.33;;;19.10;93.30;;;;;;4990944;28;20721;-83
2022/07/28 07:33:33;;;;;;;3.13;0.93;;;19.10;92.10;;;;;;4989218;28;20355;-84
2022/07/28 07:36:01;;;;;;;2.92;1.00;;;19.10;92.50;;;;;;4992744;28;20236;-83
2022/07/28 07:38:28;;;;;;;3.43;1.10;;;19.20;92.70;;;;;;4990745;28;20226;-83
2022/07/28 07:40:55;;;;;;;4.13;1.10;;;19.20;92.60;;;;;;4998484;28;20226;-83
2022/07/28 07:43:21;;;;;;;3.45;1.10;;;19.30;92.20;;;;;;4988182;28;20232;-83
2022/07/28 07:45:48;;;;;;;4.53;1.35;;;19.40;91.60;;;;;;4999110;28;20230;-83
2022/07/28 07:48:15;;;;;;;3.58;1.00;;;19.60;91.50;;;;;;4989846;28;20709;-83
2022/07/28 07:50:42;;;;;;;2.58;1.05;;;19.70;91.80;;;;;;4988498;28;20725;-83
2022/07/28 07:53:10;;;;;;;3.97;1.00;;;19.90;91.60;;;;;;4993745;28;20706;-83
2022/07/28 07:55:37;;;;;;;2.03;1.05;;;20.00;91.00;;;;;;4989671;28;20237;-83
2022/07/28 07:58:04;;;;;;;3.92;1.00;;;20.20;91.20;;;;;;4987002;28;20222;-83
2022/07/28 08:00:31;;;;;;;3.03;0.90;;;20.30;90.80;;;;;;4989425;28;20226;-82
2022/07/28 08:02:59;;;;;;;2.40;0.80;;;20.40;90.30;;;;;;4985831;28;20236;-82
2022/07/28 08:05:25;;;;;;;3.60;1.10;;;20.40;90.00;;;;;;4986595;28;21022;-81
2022/07/28 08:07:52;;;;;;;1.50;0.95;;;20.50;89.20;;;;;;5003604;28;20230;-82
2022/07/28 08:10:20;;;;;;;3.33;1.02;;;20.50;89.90;;;;;;4989899;28;20523;-82
2022/07/28 08:12:47;;;;;;;2.70;1.00;;;20.50;89.00;;;;;;4990851;28;20296;-81
2022/07/28 08:15:14;;;;;;;2.90;0.88;;;20.50;88.00;;;;;;4987772;28;20230;-82
2022/07/28 08:17:41;;;;;;;5.05;1.02;;;20.50;88.00;;;;;;4991995;28;20225;-82
2022/07/28 08:20:08;;;;;;;2.50;0.90;;;20.50;87.90;;;;;;4993442;28;20234;-82
2022/07/28 08:22:47;;;;;;;3.70;0.80;;;20.60;87.70;;;;;;4992808;28;20723;-82
2022/07/28 08:25:13;;;;;;;4.82;1.17;;;20.50;86.60;;;;;;4983979;28;20229;-82
2022/07/28 08:27:41;;;;;;;2.30;1.10;;;20.60;87.00;;;;;;4985247;28;20232;-82
2022/07/28 08:30:10;;;;;;;2.22;0.70;;;20.50;86.00;;;;;;4989277;28;20240;-82
2022/07/28 08:32:36;;;;;;;3.63;1.00;;;20.50;86.10;;;;;;4985212;28;20226;-81
2022/07/28 08:35:04;;;;;;;4.30;1.25;;;20.40;85.90;;;;;;4988150;28;20237;-82
2022/07/28 08:37:30;;;;;;;4.57;1.13;;;20.30;85.80;;;;;;5008804;28;20589;-82
2022/07/28 08:39:57;;;;;;;3.10;1.23;;;20.20;86.30;;;;;;5005010;28;20239;-82
2022/07/28 08:42:34;;;;;;;4.77;0.80;;;20.20;86.70;;;;;;5007702;28;20243;-82
2022/07/28 08:45:04;;;;;;;3.58;1.20;;;20.10;85.40;;;;;;5015263;28;20262;-82
2022/07/28 08:47:31;;;;;;;3.60;1.30;;;20.10;86.40;;;;;;4999699;28;20640;-82
2022/07/28 08:49:59;;;;;;;5.83;1.37;;;20.00;87.20;;;;;;5010241;28;20553;-81
2022/07/28 08:52:29;;;;;;;3.58;1.38;;;20.00;87.80;;;;;;5006693;28;20689;-82
2022/07/28 08:54:57;;;;;;;2.55;1.17;;;20.00;87.90;;;;;;5003601;28;20385;-82
2022/07/28 08:57:30;;;;;;;3.33;1.35;;;20.00;87.70;;;;;;5006609;28;20627;-82
2022/07/28 08:59:57;;;;;;;3.08;1.52;;;20.00;86.60;;;;;;5020141;28;20298;-82
2022/07/28 09:02:27;;;;;;;2.95;1.08;;;20.00;86.10;;;;;;4995651;28;20237;-82
2022/07/28 09:04:55;;;;;;;5.70;1.43;;;19.90;87.00;;;;;;5008269;28;20225;-81
2022/07/28 09:07:23;;;;;;;3.30;1.38;;;19.90;86.90;;;;;;5022010;28;20228;-81
2022/07/28 09:09:50;;;;;;;5.32;1.15;;;19.90;87.00;;;;;;5007434;28;20589;-82
2022/07/28 09:12:17;;;;;;;4.20;1.58;;;19.90;86.70;;;;;;5000810;28;20218;-82
2022/07/28 09:14:44;;;;;;;3.42;1.33;;;20.00;87.00;;;;;;5012737;28;20229;-81
2022/07/28 09:17:12;;;;;;;3.58;1.13;;;20.00;86.60;;;;;;5010166;28;20232;-82
2022/07/28 09:19:40;;;;;;;4.18;1.30;;;20.20;87.10;;;;;;5004459;28;20232;-81
2022/07/28 09:22:07;;;;;;;2.25;1.10;;;20.50;87.60;;;;;;4999515;28;20225;-81
2022/07/28 09:24:35;;;;;;;3.72;1.17;;;21.10;86.90;;;;;;4989147;28;20237;-82
2022/07/28 09:27:06;;;;;;;2.20;1.20;;;21.60;85.30;;;;;;4986071;28;20745;-82
2022/07/28 09:29:33;;;;;;;3.25;1.08;;;22.30;83.90;;;;;;5008639;28;20236;-82
2022/07/28 09:32:00;;;;;;;2.92;1.02;;;23.10;82.30;;;;;;5005801;28;20686;-82
2022/07/28 09:34:27;;;;;;;2.70;1.02;;;23.80;81.10;;;;;;5005429;28;20240;-82
2022/07/28 09:36:55;;;;;;;2.30;1.25;;;24.40;78.60;;;;;;5001164;28;20333;-82
2022/07/28 09:39:30;;;;;;;2.10;1.10;;;25.00;76.60;;;;;;4987356;28;20233;-82
2022/07/28 09:41:57;;;;;;;3.03;1.13;;;25.40;74.10;;;;;;4995772;28;20230;-82
2022/07/28 09:44:25;;;;;;;3.65;1.20;;;25.80;74.10;;;;;;4994977;28;20229;-82
2022/07/28 09:46:52;;;;;;;4.00;1.33;;;26.00;71.50;;;;;;4987034;28;20225;-82
2022/07/28 09:49:19;;;;;;;4.18;1.35;;;26.20;71.00;;;;;;4996340;28;20230;-82
2022/07/28 09:52:01;;;;;;;5.95;1.70;;;26.30;70.20;;;;;;4984888;28;20222;-81
2022/07/28 09:54:28;;;;;;;5.22;1.45;;;26.20;68.60;;;;;;4990461;28;20233;-83
2022/07/28 09:56:54;;;;;;;3.03;1.40;;;26.10;68.90;;;;;;4993555;28;20275;-81
2022/07/28 09:59:21;;;;;;;3.05;1.50;;;25.70;68.70;;;;;;4994003;28;20232;-81
2022/07/28 10:01:56;;;;;;;5.05;1.63;;;25.40;68.00;;;;;;4987033;28;20305;-82
2022/07/28 10:04:34;;;;;;;4.43;1.40;;;25.00;66.90;;;;;;4990802;28;20228;-81
2022/07/28 10:07:05;;;;;;;4.05;1.70;;;24.60;67.50;;;;;;4984959;28;20225;-81
2022/07/28 10:09:32;;;;;;;4.80;1.60;;;24.30;68.00;;;;;;5005905;28;20226;-81
2022/07/28 10:12:14;;;;;;;4.00;1.58;;;23.90;68.70;;;;;;4999887;28;20225;-82
2022/07/28 10:14:41;;;;;;;4.40;1.52;;;23.50;69.30;;;;;;5006487;28;20233;-82
2022/07/28 10:17:08;;;;;;;5.32;1.73;;;23.30;69.50;;;;;;5002250;28;20222;-82
2022/07/28 10:19:36;;;;;;;4.45;1.85;;;23.10;70.00;;;;;;5007894;28;20218;-82
2022/07/28 10:22:04;;;;;;;5.13;1.23;;;22.90;70.10;;;;;;4999554;28;20249;-81
2022/07/28 10:24:33;;;;;;;4.15;1.63;;;22.80;70.60;;;;;;5006889;28;20229;-81
2022/07/28 10:27:03;;;;;;;3.33;1.52;;;22.70;71.10;;;;;;5002658;28;20221;-82
2022/07/28 10:29:30;;;;;;;5.60;1.58;;;22.70;70.40;;;;;;5006659;28;20244;-81
2022/07/28 10:32:03;;;;;;;2.40;1.13;;;22.70;70.20;;;;;;5005123;28;20739;-81
2022/07/28 10:34:34;;;;;;;3.13;1.40;;;22.50;70.00;;;;;;5005161;28;20768;-82
2022/07/28 10:37:05;;;;;;;3.13;1.33;;;22.50;70.20;;;;;;4978541;28;20218;-82
2022/07/28 10:39:39;;;;;;;3.80;1.10;;;22.50;70.70;;;;;;5004294;28;20221;-83
2022/07/28 10:42:09;;;;;;;4.72;1.73;;;22.40;70.10;;;;;;4987317;28;20218;-83
2022/07/28 10:44:38;;;;;;;2.90;1.27;;;22.30;70.60;;;;;;4991623;28;20234;-82
2022/07/28 10:47:07;;;;;;;4.43;1.30;;;22.20;70.70;;;;;;4977461;28;20605;-82
2022/07/28 10:49:35;;;;;;;2.47;1.10;;;22.10;70.50;;;;;;4984960;28;20256;-83
2022/07/28 10:52:02;;;;;;;3.42;1.20;;;22.00;71.40;;;;;;4985584;28;20222;-83
2022/07/28 10:54:33;;;;;;;3.42;1.00;;;21.90;71.20;;;;;;5003186;28;20226;-83
2022/07/28 10:57:02;;;;;;;2.15;1.10;;;21.90;71.90;;;;;;4997508;28;20232;-83
2022/07/28 10:59:48;;;;;;;2.13;1.23;;;21.90;71.70;;;;;;5013577;28;20225;-82
2022/07/28 11:02:59;;;;;;;5.97;1.08;;;21.80;71.70;;;;;;4999458;28;20233;-82
2022/07/28 11:05:32;;;;;;;2.85;1.23;;;21.80;71.40;;;;;;4989055;28;20299;-82
2022/07/28 11:08:00;;;;;;;2.42;1.42;;;21.90;71.90;;;;;;5007606;28;20694;-83
2022/07/28 11:10:29;;;;;;;5.00;1.30;;;21.90;72.20;;;;;;5012895;28;20228;-82
2022/07/28 11:12:57;;;;;;;3.38;1.17;;;21.90;72.30;;;;;;5003063;28;20225;-82
2022/07/28 11:15:30;;;;;;;5.60;1.42;;;21.90;72.10;;;;;;5012082;28;20327;-83
2022/07/28 11:18:06;;;;;;;5.13;1.45;;;21.90;71.60;;;;;;5027476;28;20934;-83
2022/07/28 11:21:07;;;;;;;4.68;1.30;;;21.90;71.70;;;;;;5005217;28;20229;-83
2022/07/28 11:23:39;;;;;;;5.45;1.58;;;21.90;71.50;;;;;;5002048;28;20260;-83
2022/07/28 11:26:35;;;;;;;3.78;1.25;;;21.90;71.30;;;;;;5011544;28;20217;-82
2022/07/28 11:29:15;;;;;;;3.05;1.30;;;21.80;70.00;;;;;;5006759;28;20646;-82
2022/07/28 11:32:02;;;;;;;1.73;1.02;;;21.70;70.60;;;;;;4993075;28;20229;-83
2022/07/28 11:35:05;;;;;;;2.00;1.10;;;21.50;71.40;;;;;;4988583;28;20972;-83
2022/07/28 11:37:32;;;;;;;2.53;1.25;;;21.50;71.70;;;;;;5018927;28;20228;-83
2022/07/28 11:40:28;;;;;;;5.13;1.27;;;21.50;71.50;;;;;;5013274;28;20848;-82
2022/07/28 11:43:38;;;;;;;2.55;1.23;;;21.60;71.00;;;;;;4983796;28;20719;-83
2022/07/28 11:46:38;;;;;;;2.20;1.17;;;21.70;71.70;;;;;;4989543;28;20249;-83
2022/07/28 11:49:23;;;;;;;3.75;1.20;;;21.80;70.10;;;;;;4992195;23;20218;-90
2022/07/28 11:52:17;;;;;;;2.53;0.98;;;21.80;70.20;;;;;;4980556;28;20234;-91
2022/07/28 11:54:49;;;;;;;2.47;1.13;;;21.80;69.40;;;;;;5023056;28;20249;-91
2022/07/28 11:57:18;;;;;;;2.72;1.02;;;21.90;70.00;;;;;;5022663;28;20224;-90
2022/07/28 11:59:55;;;;;;;3.00;1.10;;;21.90;69.50;;;;;;5007942;28;20308;-90
2022/07/28 12:02:24;;;;;;;3.47;1.10;;;21.90;69.30;;;;;;5024562;28;20234;-90
2022/07/28 12:04:56;;;;;;;2.63;1.02;;;21.90;69.90;;;;;;5007312;28;20333;-90
2022/07/28 12:07:34;;;;;;;4.70;1.35;;;22.00;69.50;;;;;;5012575;28;20245;-90
2022/07/28 12:10:01;;;;;;;2.13;1.20;;;22.10;68.80;;;;;;5007537;28;20773;-91
2022/07/28 12:12:28;;;;;;;2.25;0.90;;;22.40;68.80;;;;;;5001240;28;20301;-92
2022/07/28 12:14:57;;;;;;;1.92;1.05;;;22.50;68.20;;;;;;5032195;28;20229;-90
2022/07/28 12:17:33;;;;;;;3.05;1.17;;;22.70;68.50;;;;;;5004102;28;20236;-91
2022/07/28 12:20:04;;;;;;;3.08;1.20;;;23.00;67.70;;;;;;5001711;28;20223;-90
2022/07/28 12:22:31;;;;;;;2.95;1.00;;;23.10;67.10;;;;;;5023753;28;20231;-90
2022/07/28 12:24:58;;;;;;;1.52;1.00;;;23.40;66.40;;;;;;5009471;28;20244;-90
2022/07/28 12:27:28;;;;;;;2.92;1.20;;;23.50;66.10;;;;;;5009058;28;20296;-91
2022/07/28 12:30:00;;;;;;;2.50;1.00;;;23.60;65.80;;;;;;5016980;28;20265;-90
2022/07/28 12:32:33;;;;;;;1.98;1.00;;;23.80;66.40;;;;;;5015408;28;20308;-91
2022/07/28 12:35:00;;;;;;;3.88;1.30;;;24.00;63.70;;;;;;5009666;28;20226;-91
2022/07/28 12:37:28;;;;;;;3.90;1.20;;;24.30;65.30;;;;;;5006660;28;20221;-91
2022/07/28 12:39:56;;;;;;;2.30;1.30;;;24.50;64.40;;;;;;5005980;28;20612;-90
2022/07/28 12:42:23;;;;;;;2.38;1.15;;;24.60;63.60;;;;;;5012617;28;20260;-90
2022/07/28 12:44:53;;;;;;;3.13;1.42;;;24.70;62.60;;;;;;5014837;28;20269;-90
2022/07/28 12:47:27;;;;;;;2.53;1.30;;;24.70;62.50;;;;;;5020904;28;20224;-90
2022/07/28 12:50:12;;;;;;;2.58;1.40;;;24.80;61.50;;;;;;5044525;28;20303;-90
2022/07/28 12:52:40;;;;;;;2.92;1.17;;;24.70;61.20;;;;;;5023004;28;20234;-89
2022/07/28 12:55:25;;;;;;;2.67;1.23;;;24.80;61.10;;;;;;5021761;28;20221;-90
2022/07/28 12:57:53;;;;;;;4.05;1.40;;;24.70;60.40;;;;;;5023395;28;20335;-90
2022/07/28 13:00:22;;;;;;;2.45;1.17;;;24.70;60.70;;;;;;5025281;28;20289;-90
2022/07/28 13:02:52;;;;;;;3.60;1.30;;;24.60;60.00;;;;;;5039059;28;20225;-90
2022/07/28 13:06:01;;;;;;;1.98;1.20;;;24.60;59.40;;;;;;5019895;28;20244;-90
2022/07/28 13:08:21;;;;;;;2.80;1.30;;;24.50;59.50;;;;;;5018744;28;20221;-90
2022/07/28 13:10:49;;;;;;;2.55;1.20;;;24.50;60.10;;;;;;5023395;28;20229;-90